SUMZM MYBS-MYNN
Flight info
| Callsign | SUMZM |
|---|---|
| Flight time | 0h 31m |
| Altitude | 17000 |
| Route | RAJAY |
| Aircraft | PC12/L-SDFGRWY/S |
Departure
| Time | 2026-05-06 17:51 |
|---|---|
| Airport | South Bimini Airport (MYBS) |
Arrival
| Time | 2026-05-06 18:23 |
|---|---|
| Airport | Lynden Pindling International Airport (MYNN) |
| Time | Latitude | Longitude | Altitude | Speed | Heading |
|---|---|---|---|---|---|
| 2026-05-06 17:33 | 25.70125 | -79.27215 | 20 ft | 0 kts | 299° |
| 2026-05-06 17:47 | 25.70126 | -79.27217 | 20 ft | 1 kts | 294° |
| 2026-05-06 17:48 | 25.70111 | -79.27247 | 20 ft | 8 kts | 223° |
| 2026-05-06 17:48 | 25.70067 | -79.27281 | 19 ft | 4 kts | 182° |
| 2026-05-06 17:50 | 25.70046 | -79.27281 | 19 ft | 9 kts | 182° |
| 2026-05-06 17:50 | 25.69994 | -79.27244 | 18 ft | 4 kts | 89° |
| 2026-05-06 17:50 | 25.69994 | -79.27217 | 18 ft | 21 kts | 90° |
| 2026-05-06 17:51 | 25.69992 | -79.26801 | 14 ft | 81 kts | 90° |
| 2026-05-06 17:51 | 25.69985 | -79.26085 | 205 ft | 101 kts | 92° |
| 2026-05-06 17:51 | 25.70062 | -79.24947 | 633 ft | 124 kts | 83° |
| 2026-05-06 17:51 | 25.70188 | -79.23925 | 980 ft | 146 kts | 83° |
| 2026-05-06 17:52 | 25.70281 | -79.23129 | 1235 ft | 161 kts | 82° |
| 2026-05-06 17:52 | 25.70429 | -79.21834 | 1606 ft | 177 kts | 83° |
| 2026-05-06 17:52 | 25.70560 | -79.20433 | 1968 ft | 188 kts | 90° |
| 2026-05-06 17:52 | 25.70124 | -79.18999 | 2001 ft | 213 kts | 120° |
| 2026-05-06 17:53 | 25.69308 | -79.17576 | 2114 ft | 219 kts | 118° |
| 2026-05-06 17:53 | 25.68650 | -79.16082 | 2477 ft | 213 kts | 112° |
| 2026-05-06 17:53 | 25.68086 | -79.14581 | 2844 ft | 208 kts | 111° |
| 2026-05-06 17:53 | 25.67524 | -79.13115 | 3211 ft | 206 kts | 112° |
| 2026-05-06 17:54 | 25.66953 | -79.11665 | 3571 ft | 205 kts | 113° |
| 2026-05-06 17:54 | 25.66379 | -79.10211 | 3933 ft | 206 kts | 113° |
| 2026-05-06 17:54 | 25.65807 | -79.08755 | 4301 ft | 206 kts | 114° |
| 2026-05-06 17:54 | 25.65238 | -79.07303 | 4672 ft | 207 kts | 114° |
| 2026-05-06 17:55 | 25.64663 | -79.05836 | 5036 ft | 207 kts | 114° |
| 2026-05-06 17:55 | 25.64089 | -79.04373 | 5397 ft | 207 kts | 114° |
| 2026-05-06 17:55 | 25.63514 | -79.02909 | 5758 ft | 208 kts | 115° |
| 2026-05-06 17:55 | 25.62937 | -79.01442 | 6125 ft | 208 kts | 115° |
| 2026-05-06 17:56 | 25.62357 | -78.99965 | 6506 ft | 209 kts | 115° |
| 2026-05-06 17:56 | 25.61779 | -78.98495 | 6848 ft | 209 kts | 114° |
| 2026-05-06 17:56 | 25.61193 | -78.97006 | 7199 ft | 211 kts | 114° |
| 2026-05-06 17:56 | 25.60613 | -78.95532 | 7549 ft | 212 kts | 113° |
| 2026-05-06 17:57 | 25.60026 | -78.94039 | 7905 ft | 213 kts | 113° |
| 2026-05-06 17:57 | 25.59433 | -78.92529 | 8265 ft | 214 kts | 112° |
| 2026-05-06 17:57 | 25.58835 | -78.91012 | 8637 ft | 214 kts | 112° |
| 2026-05-06 17:57 | 25.58240 | -78.89505 | 9004 ft | 214 kts | 112° |
| 2026-05-06 17:58 | 25.57644 | -78.87991 | 9383 ft | 214 kts | 112° |
| 2026-05-06 17:58 | 25.57049 | -78.86481 | 9762 ft | 214 kts | 111° |
| 2026-05-06 17:58 | 25.56453 | -78.84968 | 10122 ft | 215 kts | 111° |
| 2026-05-06 17:58 | 25.55861 | -78.83468 | 10465 ft | 215 kts | 111° |
| 2026-05-06 17:59 | 25.55263 | -78.81951 | 10809 ft | 215 kts | 111° |
| 2026-05-06 17:59 | 25.54660 | -78.80422 | 11162 ft | 216 kts | 111° |
| 2026-05-06 17:59 | 25.54058 | -78.78898 | 11514 ft | 217 kts | 111° |
| 2026-05-06 17:59 | 25.53450 | -78.77358 | 11877 ft | 218 kts | 110° |
| 2026-05-06 18:00 | 25.52842 | -78.75820 | 12239 ft | 218 kts | 110° |
| 2026-05-06 18:00 | 25.52233 | -78.74278 | 12606 ft | 219 kts | 110° |
| 2026-05-06 18:00 | 25.51619 | -78.72725 | 12979 ft | 220 kts | 110° |
| 2026-05-06 18:00 | 25.51008 | -78.71180 | 13352 ft | 220 kts | 110° |
| 2026-05-06 18:01 | 25.50392 | -78.69622 | 13727 ft | 221 kts | 110° |
| 2026-05-06 18:01 | 25.49780 | -78.68076 | 14080 ft | 222 kts | 110° |
| 2026-05-06 18:01 | 25.49152 | -78.66489 | 14422 ft | 222 kts | 109° |
| 2026-05-06 18:01 | 25.48528 | -78.64915 | 14766 ft | 223 kts | 109° |
| 2026-05-06 18:02 | 25.47915 | -78.63368 | 15108 ft | 223 kts | 109° |
| 2026-05-06 18:02 | 25.47293 | -78.61796 | 15453 ft | 224 kts | 109° |
| 2026-05-06 18:02 | 25.46664 | -78.60211 | 15812 ft | 224 kts | 109° |
| 2026-05-06 18:02 | 25.46035 | -78.58628 | 16167 ft | 224 kts | 108° |
| 2026-05-06 18:03 | 25.45399 | -78.57022 | 16427 ft | 230 kts | 108° |
| 2026-05-06 18:03 | 25.44750 | -78.55385 | 16671 ft | 234 kts | 108° |
| 2026-05-06 18:03 | 25.44092 | -78.53731 | 16917 ft | 237 kts | 108° |
| 2026-05-06 18:03 | 25.43438 | -78.52047 | 16993 ft | 245 kts | 105° |
| 2026-05-06 18:04 | 25.42885 | -78.50233 | 16996 ft | 253 kts | 102° |
| 2026-05-06 18:04 | 25.42320 | -78.48354 | 17003 ft | 261 kts | 104° |
| 2026-05-06 18:04 | 25.41690 | -78.46449 | 17006 ft | 266 kts | 105° |
| 2026-05-06 18:04 | 25.41041 | -78.44519 | 17008 ft | 270 kts | 105° |
| 2026-05-06 18:05 | 25.40394 | -78.42555 | 17008 ft | 272 kts | 104° |
| 2026-05-06 18:05 | 25.39745 | -78.40561 | 16753 ft | 278 kts | 105° |
| 2026-05-06 18:05 | 25.39083 | -78.38551 | 16437 ft | 279 kts | 105° |
| 2026-05-06 18:05 | 25.38420 | -78.36547 | 16120 ft | 277 kts | 105° |
| 2026-05-06 18:06 | 25.37761 | -78.34544 | 15815 ft | 275 kts | 106° |
| 2026-05-06 18:06 | 25.37111 | -78.32562 | 15503 ft | 274 kts | 106° |
| 2026-05-06 18:06 | 25.36522 | -78.30573 | 15197 ft | 268 kts | 96° |
| 2026-05-06 18:06 | 25.36514 | -78.28576 | 14911 ft | 260 kts | 79° |
| 2026-05-06 18:07 | 25.36773 | -78.26598 | 14612 ft | 259 kts | 76° |
| 2026-05-06 18:07 | 25.37082 | -78.24632 | 14316 ft | 259 kts | 76° |
| 2026-05-06 18:07 | 25.37512 | -78.22711 | 14016 ft | 253 kts | 63° |
| 2026-05-06 18:07 | 25.38315 | -78.21026 | 13711 ft | 250 kts | 56° |
| 2026-05-06 18:08 | 25.39217 | -78.19385 | 13382 ft | 250 kts | 54° |
| 2026-05-06 18:08 | 25.40151 | -78.17727 | 13050 ft | 250 kts | 54° |
| 2026-05-06 18:08 | 25.41056 | -78.16130 | 12737 ft | 249 kts | 54° |
| 2026-05-06 18:08 | 25.41985 | -78.14502 | 12411 ft | 249 kts | 54° |
| 2026-05-06 18:09 | 25.42914 | -78.12884 | 12094 ft | 248 kts | 54° |
| 2026-05-06 18:09 | 25.43844 | -78.11274 | 11785 ft | 248 kts | 54° |
| 2026-05-06 18:09 | 25.44771 | -78.09681 | 11478 ft | 247 kts | 54° |
| 2026-05-06 18:09 | 25.45705 | -78.08083 | 11166 ft | 246 kts | 54° |
| 2026-05-06 18:10 | 25.46644 | -78.06489 | 10857 ft | 246 kts | 54° |
| 2026-05-06 18:10 | 25.47582 | -78.04908 | 10563 ft | 245 kts | 54° |
| 2026-05-06 18:10 | 25.48520 | -78.03336 | 10258 ft | 245 kts | 54° |
| 2026-05-06 18:10 | 25.49449 | -78.01789 | 9959 ft | 243 kts | 55° |
| 2026-05-06 18:11 | 25.50003 | -78.00035 | 9612 ft | 246 kts | 83° |
| 2026-05-06 18:11 | 25.49684 | -77.98173 | 9283 ft | 247 kts | 114° |
| 2026-05-06 18:11 | 25.48582 | -77.96722 | 8951 ft | 248 kts | 141° |
| 2026-05-06 18:11 | 25.47191 | -77.95631 | 8631 ft | 242 kts | 143° |
| 2026-05-06 18:12 | 25.45907 | -77.94431 | 8300 ft | 239 kts | 135° |
| 2026-05-06 18:12 | 25.44782 | -77.93096 | 7998 ft | 237 kts | 131° |
| 2026-05-06 18:12 | 25.43695 | -77.91766 | 7695 ft | 236 kts | 133° |
| 2026-05-06 18:12 | 25.42549 | -77.90431 | 7375 ft | 235 kts | 134° |
| 2026-05-06 18:13 | 25.41411 | -77.89129 | 7067 ft | 236 kts | 134° |
| 2026-05-06 18:13 | 25.40277 | -77.87821 | 6767 ft | 235 kts | 135° |
| 2026-05-06 18:13 | 25.39153 | -77.86518 | 6460 ft | 233 kts | 134° |
| 2026-05-06 18:13 | 25.38049 | -77.85239 | 6141 ft | 232 kts | 134° |
| 2026-05-06 18:14 | 25.36919 | -77.83931 | 5824 ft | 238 kts | 134° |
| 2026-05-06 18:14 | 25.35771 | -77.82603 | 5560 ft | 239 kts | 134° |
| 2026-05-06 18:14 | 25.34615 | -77.81265 | 5338 ft | 242 kts | 134° |
| 2026-05-06 18:14 | 25.33450 | -77.79917 | 5168 ft | 243 kts | 134° |
| 2026-05-06 18:15 | 25.32281 | -77.78566 | 5001 ft | 243 kts | 134° |
| 2026-05-06 18:15 | 25.31104 | -77.77206 | 4832 ft | 244 kts | 134° |
| 2026-05-06 18:15 | 25.29928 | -77.75848 | 4660 ft | 246 kts | 134° |
| 2026-05-06 18:15 | 25.28743 | -77.74479 | 4482 ft | 246 kts | 134° |
| 2026-05-06 18:16 | 25.27553 | -77.73105 | 4309 ft | 247 kts | 134° |
| 2026-05-06 18:16 | 25.26364 | -77.71732 | 4138 ft | 247 kts | 134° |
| 2026-05-06 18:16 | 25.25193 | -77.70381 | 3970 ft | 245 kts | 134° |
| 2026-05-06 18:16 | 25.24019 | -77.69026 | 3797 ft | 243 kts | 134° |
| 2026-05-06 18:17 | 25.22850 | -77.67678 | 3637 ft | 242 kts | 134° |
| 2026-05-06 18:17 | 25.21695 | -77.66328 | 3466 ft | 241 kts | 131° |
| 2026-05-06 18:17 | 25.20621 | -77.64914 | 3299 ft | 240 kts | 130° |
| 2026-05-06 18:17 | 25.19527 | -77.63532 | 3123 ft | 239 kts | 133° |
| 2026-05-06 18:18 | 25.18365 | -77.62209 | 2952 ft | 239 kts | 134° |
| 2026-05-06 18:18 | 25.17208 | -77.60887 | 2780 ft | 239 kts | 134° |
| 2026-05-06 18:18 | 25.16059 | -77.59562 | 2615 ft | 231 kts | 133° |
| 2026-05-06 18:18 | 25.15026 | -77.58373 | 2431 ft | 200 kts | 133° |
| 2026-05-06 18:19 | 25.14083 | -77.57288 | 2258 ft | 196 kts | 133° |
| 2026-05-06 18:19 | 25.13153 | -77.56215 | 2091 ft | 195 kts | 133° |
| 2026-05-06 18:19 | 25.12245 | -77.55213 | 1921 ft | 172 kts | 138° |
| 2026-05-06 18:19 | 25.11392 | -77.54405 | 1724 ft | 153 kts | 137° |
| 2026-05-06 18:20 | 25.10676 | -77.53659 | 1540 ft | 130 kts | 135° |
| 2026-05-06 18:20 | 25.10060 | -77.52993 | 1385 ft | 122 kts | 134° |
| 2026-05-06 18:20 | 25.09479 | -77.52354 | 1235 ft | 114 kts | 133° |
| 2026-05-06 18:20 | 25.08934 | -77.51743 | 1084 ft | 109 kts | 133° |
| 2026-05-06 18:21 | 25.08432 | -77.51181 | 949 ft | 98 kts | 133° |
| 2026-05-06 18:21 | 25.07963 | -77.50658 | 828 ft | 95 kts | 133° |
| 2026-05-06 18:21 | 25.07549 | -77.50197 | 721 ft | 93 kts | 133° |
| 2026-05-06 18:21 | 25.07098 | -77.49693 | 600 ft | 92 kts | 131° |
| 2026-05-06 18:22 | 25.06662 | -77.49196 | 471 ft | 91 kts | 130° |
| 2026-05-06 18:22 | 25.06206 | -77.48707 | 349 ft | 91 kts | 133° |
| 2026-05-06 18:22 | 25.05761 | -77.48220 | 233 ft | 89 kts | 130° |
| 2026-05-06 18:22 | 25.05329 | -77.47734 | 93 ft | 88 kts | 133° |
| 2026-05-06 18:23 | 25.04924 | -77.47277 | 18 ft | 73 kts | 131° |
| 2026-05-06 18:23 | 25.04625 | -77.46947 | 19 ft | 44 kts | 135° |
| 2026-05-06 18:23 | 25.04487 | -77.46796 | 20 ft | 18 kts | 129° |
| 2026-05-06 18:23 | 25.04512 | -77.46672 | 19 ft | 17 kts | 46° |
| 2026-05-06 18:24 | 25.04531 | -77.46650 | 19 ft | 0 kts | 47° |
| 2026-05-06 18:25 | 25.04543 | -77.46615 | 19 ft | 11 kts | 98° |
| 2026-05-06 18:25 | 25.04483 | -77.46533 | 18 ft | 17 kts | 134° |
| 2026-05-06 18:26 | 25.04449 | -77.46415 | 18 ft | 12 kts | 119° |
| 2026-05-06 18:26 | 25.04403 | -77.46323 | 18 ft | 12 kts | 66° |
| 2026-05-06 18:26 | 25.04442 | -77.46238 | 18 ft | 13 kts | 61° |
| 2026-05-06 18:26 | 25.04512 | -77.46264 | 18 ft | 15 kts | 333° |
| 2026-05-06 18:27 | 25.04549 | -77.46290 | 18 ft | 0 kts | 318° |